LICR/REG METAR and TAF weather

Enter ICAO airport designator
Station Type Date Time Source
LICR METAR 2020/02/25 11:50 UTC NOAA

LICR 251150Z 34009KT 320V020 CAVOK 21/04 Q1016


Station Type Date Time Source
LICR Decoded METAR 2020/02/25 11:50 UTC NOAA

Reggio Calabria, Italy (LICR) 38-04N 015-39E 21M
Feb 25, 2020 - 06:50 AM EST / 2020.02.25 1150 UTC
Wind: from the NNW (340 degrees) at 10 MPH (9 KT) (direction variable):0
Visibility: greater than 7 mile(s):0
Temperature: 69 F (21 C)
Dew Point: 39 F (4 C)
Relative Humidity: 32%
Pressure (altimeter): 30.00 in. Hg (1016 hPa)
ob: LICR 251150Z 34009KT 320V020 CAVOK 21/04 Q1016
cycle: 12

Station Type Date Time Source
LICR TAF 2020/02/25 12:21 UTC NOAA

TAF LICR 251100Z 2512/2612 35010KT 9999 SCT030

Example: see airport list